Bandirma, Band?rma Airport (LTBG)

NameBand?rma Airport
CityBandirma
CountryTurkey
ICAOLTBG
IATABDM
Altitude52 m
CoordinatesGoogle Map
Live Air TrafficLiveATC.net
METARLTBG 201350Z 03009KT 9999 SCT035 19/13 Q1017 NOSIG RMK RWY18 02010KT
2018-10-20 13:50:00 Wind: North-Northeast (30°) 4.63 m/s - Visibility: > 10000 m - Temperature: 19 °C - Dew point: 13 °C - Humidity: 68.3% - Pressure: 1017 hPa

Sorry, no flights used the airport in this database.